sensor_id;sensor_type;location;lat;lon;timestamp;pressure;altitude;pressure_sealevel;temperature;humidity
67434;BME280;54305;47.950;6.572;2023-07-13T00:02:02;94439.13;;;14.96;100.00
67434;BME280;54305;47.950;6.572;2023-07-13T00:04:27;94440.28;;;14.94;100.00
67434;BME280;54305;47.950;6.572;2023-07-13T00:06:53;94442.66;;;14.89;100.00
67434;BME280;54305;47.950;6.572;2023-07-13T00:09:18;94442.41;;;14.84;100.00
67434;BME280;54305;47.950;6.572;2023-07-13T00:11:44;94445.03;;;14.84;100.00
67434;BME280;54305;47.950;6.572;2023-07-13T00:14:10;94441.88;;;14.74;100.00
67434;BME280;54305;47.950;6.572;2023-07-13T00:16:36;94441.78;;;14.82;100.00
67434;BME280;54305;47.950;6.572;2023-07-13T00:19:02;94446.50;;;14.72;100.00
67434;BME280;54305;47.950;6.572;2023-07-13T00:21:27;94446.34;;;14.59;100.00
67434;BME280;54305;47.950;6.572;2023-07-13T00:23:52;94436.28;;;14.62;100.00
67434;BME280;54305;47.950;6.572;2023-07-13T00:26:18;94437.84;;;14.57;100.00
67434;BME280;54305;47.950;6.572;2023-07-13T00:28:43;94449.88;;;14.51;100.00
67434;BME280;54305;47.950;6.572;2023-07-13T00:31:09;94450.31;;;14.55;100.00
67434;BME280;54305;47.950;6.572;2023-07-13T00:33:35;94450.31;;;14.55;100.00
67434;BME280;54305;47.950;6.572;2023-07-13T00:36:00;94447.06;;;14.53;100.00
67434;BME280;54305;47.950;6.572;2023-07-13T00:38:26;94452.31;;;14.53;100.00
67434;BME280;54305;47.950;6.572;2023-07-13T00:40:51;94459.53;;;14.51;100.00
67434;BME280;54305;47.950;6.572;2023-07-13T00:43:18;94450.97;;;14.57;100.00
67434;BME280;54305;47.950;6.572;2023-07-13T00:48:19;94447.94;;;14.60;100.00
67434;BME280;54305;47.950;6.572;2023-07-13T00:50:46;94448.59;;;14.62;100.00
67434;BME280;54305;47.950;6.572;2023-07-13T00:53:12;94449.22;;;14.64;100.00
67434;BME280;54305;47.950;6.572;2023-07-13T00:55:38;94448.47;;;14.70;100.00
67434;BME280;54305;47.950;6.572;2023-07-13T00:58:04;94452.97;;;14.76;100.00
67434;BME280;54305;47.950;6.572;2023-07-13T01:00:31;94451.00;;;14.78;100.00
67434;BME280;54305;47.950;6.572;2023-07-13T01:02:57;94459.41;;;14.73;100.00
67434;BME280;54305;47.950;6.572;2023-07-13T01:05:22;94457.78;;;14.72;100.00
67434;BME280;54305;47.950;6.572;2023-07-13T01:07:48;94454.97;;;14.74;100.00
67434;BME280;54305;47.950;6.572;2023-07-13T01:10:30;94454.16;;;14.73;100.00
67434;BME280;54305;47.950;6.572;2023-07-13T01:13:02;94452.28;;;14.82;100.00
67434;BME280;54305;47.950;6.572;2023-07-13T01:15:45;94451.88;;;14.85;100.00
67434;BME280;54305;47.950;6.572;2023-07-13T01:18:20;94430.56;;;14.88;100.00
67434;BME280;54305;47.950;6.572;2023-07-13T01:20:56;94442.66;;;14.89;100.00
67434;BME280;54305;47.950;6.572;2023-07-13T01:23:21;94441.13;;;14.94;100.00
67434;BME280;54305;47.950;6.572;2023-07-13T01:25:47;94444.94;;;14.92;100.00
67434;BME280;54305;47.950;6.572;2023-07-13T01:28:12;94443.56;;;14.96;100.00
67434;BME280;54305;47.950;6.572;2023-07-13T01:30:38;94440.69;;;14.91;100.00
67434;BME280;54305;47.950;6.572;2023-07-13T01:33:05;94442.03;;;14.87;100.00
67434;BME280;54305;47.950;6.572;2023-07-13T01:35:32;94437.41;;;14.89;100.00
67434;BME280;54305;47.950;6.572;2023-07-13T01:37:57;94437.97;;;14.84;100.00
67434;BME280;54305;47.950;6.572;2023-07-13T01:40:22;94435.28;;;14.78;100.00
67434;BME280;54305;47.950;6.572;2023-07-13T01:42:47;94440.16;;;14.81;100.00
67434;BME280;54305;47.950;6.572;2023-07-13T01:45:13;94438.69;;;14.78;100.00
67434;BME280;54305;47.950;6.572;2023-07-13T01:47:38;94432.91;;;14.83;100.00
67434;BME280;54305;47.950;6.572;2023-07-13T01:50:03;94432.09;;;14.82;100.00
67434;BME280;54305;47.950;6.572;2023-07-13T01:52:29;94425.16;;;14.75;100.00
67434;BME280;54305;47.950;6.572;2023-07-13T01:54:54;94428.69;;;14.67;100.00
67434;BME280;54305;47.950;6.572;2023-07-13T01:57:19;94433.03;;;14.60;100.00
67434;BME280;54305;47.950;6.572;2023-07-13T01:59:45;94426.72;;;14.69;100.00
67434;BME280;54305;47.950;6.572;2023-07-13T02:02:10;94433.13;;;14.67;100.00
67434;BME280;54305;47.950;6.572;2023-07-13T02:04:35;94429.88;;;14.65;100.00
67434;BME280;54305;47.950;6.572;2023-07-13T02:07:00;94428.59;;;14.61;100.00
67434;BME280;54305;47.950;6.572;2023-07-13T02:09:26;94430.97;;;14.56;100.00
67434;BME280;54305;47.950;6.572;2023-07-13T02:11:52;94428.16;;;14.57;100.00
67434;BME280;54305;47.950;6.572;2023-07-13T02:14:17;94427.38;;;14.57;100.00
67434;BME280;54305;47.950;6.572;2023-07-13T02:16:42;94426.19;;;14.59;100.00
67434;BME280;54305;47.950;6.572;2023-07-13T02:19:08;94428.53;;;14.40;100.00
67434;BME280;54305;47.950;6.572;2023-07-13T02:21:34;94424.75;;;14.42;100.00
67434;BME280;54305;47.950;6.572;2023-07-13T02:23:59;94427.91;;;14.38;100.00
67434;BME280;54305;47.950;6.572;2023-07-13T02:26:25;94424.66;;;14.36;100.00
67434;BME280;54305;47.950;6.572;2023-07-13T02:28:50;94425.38;;;14.30;100.00
67434;BME280;54305;47.950;6.572;2023-07-13T02:31:15;94428.63;;;14.32;100.00
67434;BME280;54305;47.950;6.572;2023-07-13T02:33:41;94421.53;;;14.18;100.00
67434;BME280;54305;47.950;6.572;2023-07-13T02:36:06;94427.16;;;14.15;100.00
67434;BME280;54305;47.950;6.572;2023-07-13T02:38:32;94429.50;;;14.10;100.00
67434;BME280;54305;47.950;6.572;2023-07-13T02:41:01;94423.09;;;14.12;100.00
67434;BME280;54305;47.950;6.572;2023-07-13T02:43:27;94425.28;;;14.09;100.00
67434;BME280;54305;47.950;6.572;2023-07-13T02:45:52;94421.00;;;14.08;100.00
67434;BME280;54305;47.950;6.572;2023-07-13T02:48:17;94428.59;;;14.03;100.00
67434;BME280;54305;47.950;6.572;2023-07-13T02:50:44;94420.84;;;13.95;100.00
67434;BME280;54305;47.950;6.572;2023-07-13T02:53:09;94424.78;;;13.91;100.00
67434;BME280;54305;47.950;6.572;2023-07-13T02:55:34;94420.28;;;13.85;100.00
67434;BME280;54305;47.950;6.572;2023-07-13T02:57:59;94424.97;;;13.75;100.00
67434;BME280;54305;47.950;6.572;2023-07-13T03:00:25;94423.69;;;13.71;100.00
67434;BME280;54305;47.950;6.572;2023-07-13T03:02:50;94426.81;;;13.66;100.00
67434;BME280;54305;47.950;6.572;2023-07-13T03:05:15;94418.19;;;13.80;100.00
67434;BME280;54305;47.950;6.572;2023-07-13T03:07:41;94419.63;;;13.83;100.00
67434;BME280;54305;47.950;6.572;2023-07-13T03:10:07;94419.63;;;13.83;100.00
67434;BME280;54305;47.950;6.572;2023-07-13T03:12:32;94422.69;;;13.72;100.00
67434;BME280;54305;47.950;6.572;2023-07-13T03:14:57;94424.69;;;13.70;100.00
67434;BME280;54305;47.950;6.572;2023-07-13T03:17:23;94424.91;;;13.60;100.00
67434;BME280;54305;47.950;6.572;2023-07-13T03:19:48;94431.50;;;13.56;100.00
67434;BME280;54305;47.950;6.572;2023-07-13T03:22:15;94438.44;;;13.64;100.00
67434;BME280;54305;47.950;6.572;2023-07-13T03:24:40;94433.22;;;13.64;100.00
67434;BME280;54305;47.950;6.572;2023-07-13T03:27:06;94438.94;;;13.67;100.00
67434;BME280;54305;47.950;6.572;2023-07-13T03:29:31;94434.66;;;13.52;100.00
67434;BME280;54305;47.950;6.572;2023-07-13T03:31:57;94432.19;;;13.50;100.00
67434;BME280;54305;47.950;6.572;2023-07-13T03:34:22;94436.25;;;13.53;100.00
67434;BME280;54305;47.950;6.572;2023-07-13T03:36:47;94438.53;;;13.56;100.00
67434;BME280;54305;47.950;6.572;2023-07-13T03:39:12;94441.50;;;13.53;100.00
67434;BME280;54305;47.950;6.572;2023-07-13T03:41:38;94441.75;;;13.43;100.00
67434;BME280;54305;47.950;6.572;2023-07-13T03:44:03;94439.66;;;13.39;100.00
67434;BME280;54305;47.950;6.572;2023-07-13T03:46:28;94447.53;;;13.31;100.00
67434;BME280;54305;47.950;6.572;2023-07-13T03:48:54;94446.59;;;13.32;100.00
67434;BME280;54305;47.950;6.572;2023-07-13T03:51:19;94451.72;;;13.40;100.00
67434;BME280;54305;47.950;6.572;2023-07-13T03:53:45;94448.66;;;13.36;100.00
67434;BME280;54305;47.950;6.572;2023-07-13T03:56:11;94442.81;;;13.34;100.00
67434;BME280;54305;47.950;6.572;2023-07-13T03:58:37;94452.09;;;13.37;100.00
67434;BME280;54305;47.950;6.572;2023-07-13T04:01:03;94446.97;;;13.43;100.00
67434;BME280;54305;47.950;6.572;2023-07-13T04:03:30;94446.97;;;13.43;100.00
67434;BME280;54305;47.950;6.572;2023-07-13T04:05:58;94454.44;;;13.32;100.00
67434;BME280;54305;47.950;6.572;2023-07-13T04:08:25;94454.88;;;13.35;100.00
67434;BME280;54305;47.950;6.572;2023-07-13T04:10:50;94450.09;;;13.39;100.00
67434;BME280;54305;47.950;6.572;2023-07-13T04:13:15;94448.81;;;13.35;100.00
67434;BME280;54305;47.950;6.572;2023-07-13T04:15:41;94450.44;;;13.36;100.00
67434;BME280;54305;47.950;6.572;2023-07-13T04:18:06;94456.97;;;13.40;100.00
67434;BME280;54305;47.950;6.572;2023-07-13T04:20:31;94455.22;;;13.55;100.00
67434;BME280;54305;47.950;6.572;2023-07-13T04:22:57;94454.53;;;13.61;100.00
67434;BME280;54305;47.950;6.572;2023-07-13T04:25:23;94454.63;;;13.67;100.00
67434;BME280;54305;47.950;6.572;2023-07-13T04:27:49;94459.50;;;13.70;100.00
67434;BME280;54305;47.950;6.572;2023-07-13T04:30:14;94457.06;;;13.69;100.00
67434;BME280;54305;47.950;6.572;2023-07-13T04:32:39;94460.66;;;13.68;100.00
67434;BME280;54305;47.950;6.572;2023-07-13T04:35:05;94475.19;;;13.70;100.00
67434;BME280;54305;47.950;6.572;2023-07-13T04:37:30;94477.03;;;13.70;100.00
67434;BME280;54305;47.950;6.572;2023-07-13T04:39:55;94480.28;;;13.72;100.00
67434;BME280;54305;47.950;6.572;2023-07-13T04:42:20;94479.38;;;13.79;100.00
67434;BME280;54305;47.950;6.572;2023-07-13T04:44:49;94489.97;;;13.86;100.00
67434;BME280;54305;47.950;6.572;2023-07-13T04:47:15;94484.72;;;13.86;100.00
67434;BME280;54305;47.950;6.572;2023-07-13T04:49:40;94490.41;;;13.75;100.00
67434;BME280;54305;47.950;6.572;2023-07-13T04:52:05;94492.31;;;13.81;100.00
67434;BME280;54305;47.950;6.572;2023-07-13T04:54:32;94490.25;;;13.91;100.00
67434;BME280;54305;47.950;6.572;2023-07-13T04:56:57;94488.19;;;14.01;100.00
67434;BME280;54305;47.950;6.572;2023-07-13T04:59:23;94494.31;;;14.08;100.00
67434;BME280;54305;47.950;6.572;2023-07-13T05:01:48;94495.16;;;14.08;100.00
67434;BME280;54305;47.950;6.572;2023-07-13T05:04:13;94497.19;;;14.21;100.00
67434;BME280;54305;47.950;6.572;2023-07-13T05:06:38;94502.81;;;14.32;100.00
67434;BME280;54305;47.950;6.572;2023-07-13T05:09:04;94503.97;;;14.44;100.00
67434;BME280;54305;47.950;6.572;2023-07-13T05:11:29;94502.38;;;14.58;100.00
67434;BME280;54305;47.950;6.572;2023-07-13T05:13:54;94498.56;;;14.75;100.00
67434;BME280;54305;47.950;6.572;2023-07-13T05:16:20;94503.88;;;14.96;100.00
67434;BME280;54305;47.950;6.572;2023-07-13T05:18:45;94509.53;;;15.14;100.00
67434;BME280;54305;47.950;6.572;2023-07-13T05:21:11;94508.50;;;15.29;100.00
67434;BME280;54305;47.950;6.572;2023-07-13T05:23:36;94507.00;;;15.35;100.00
67434;BME280;54305;47.950;6.572;2023-07-13T05:26:02;94512.75;;;15.45;100.00
67434;BME280;54305;47.950;6.572;2023-07-13T05:28:28;94517.16;;;15.44;100.00
67434;BME280;54305;47.950;6.572;2023-07-13T05:30:53;94525.06;;;15.30;100.00
67434;BME280;54305;47.950;6.572;2023-07-13T05:33:19;94525.47;;;15.12;100.00
67434;BME280;54305;47.950;6.572;2023-07-13T05:35:44;94531.69;;;15.26;100.00
67434;BME280;54305;47.950;6.572;2023-07-13T05:38:10;94521.66;;;15.50;100.00
67434;BME280;54305;47.950;6.572;2023-07-13T05:40:35;94534.41;;;15.68;100.00
67434;BME280;54305;47.950;6.572;2023-07-13T05:43:00;94535.25;;;15.75;100.00
67434;BME280;54305;47.950;6.572;2023-07-13T05:45:25;94526.28;;;15.84;100.00
67434;BME280;54305;47.950;6.572;2023-07-13T05:47:51;94532.06;;;15.79;100.00
67434;BME280;54305;47.950;6.572;2023-07-13T05:50:16;94529.66;;;15.78;100.00
67434;BME280;54305;47.950;6.572;2023-07-13T05:52:41;94529.88;;;16.04;100.00
67434;BME280;54305;47.950;6.572;2023-07-13T05:55:06;94540.50;;;16.17;100.00
67434;BME280;54305;47.950;6.572;2023-07-13T05:57:32;94544.22;;;16.29;100.00
67434;BME280;54305;47.950;6.572;2023-07-13T05:59:57;94547.59;;;16.44;100.00
67434;BME280;54305;47.950;6.572;2023-07-13T06:02:22;94544.59;;;16.47;100.00
67434;BME280;54305;47.950;6.572;2023-07-13T06:04:48;94547.41;;;16.73;100.00
67434;BME280;54305;47.950;6.572;2023-07-13T06:07:13;94547.94;;;16.96;100.00
67434;BME280;54305;47.950;6.572;2023-07-13T06:09:38;94550.16;;;16.92;100.00
67434;BME280;54305;47.950;6.572;2023-07-13T06:12:04;94545.44;;;16.81;100.00
67434;BME280;54305;47.950;6.572;2023-07-13T06:14:29;94540.06;;;16.62;100.00
67434;BME280;54305;47.950;6.572;2023-07-13T06:16:54;94545.66;;;16.80;100.00
67434;BME280;54305;47.950;6.572;2023-07-13T06:19:20;94555.25;;;16.94;100.00
67434;BME280;54305;47.950;6.572;2023-07-13T06:21:45;94551.19;;;16.91;100.00
67434;BME280;54305;47.950;6.572;2023-07-13T06:24:10;94556.41;;;16.85;100.00
67434;BME280;54305;47.950;6.572;2023-07-13T06:26:35;94560.38;;;17.08;100.00
67434;BME280;54305;47.950;6.572;2023-07-13T06:29:01;94551.47;;;17.50;100.00
67434;BME280;54305;47.950;6.572;2023-07-13T06:31:26;94551.16;;;17.92;100.00
67434;BME280;54305;47.950;6.572;2023-07-13T06:33:51;94554.84;;;18.17;100.00
67434;BME280;54305;47.950;6.572;2023-07-13T06:36:16;94552.81;;;18.32;100.00
67434;BME280;54305;47.950;6.572;2023-07-13T06:38:42;94561.31;;;18.08;100.00
67434;BME280;54305;47.950;6.572;2023-07-13T06:41:07;94562.94;;;17.96;100.00
67434;BME280;54305;47.950;6.572;2023-07-13T06:43:33;94564.94;;;17.94;100.00
67434;BME280;54305;47.950;6.572;2023-07-13T06:45:58;94565.78;;;18.14;100.00
67434;BME280;54305;47.950;6.572;2023-07-13T06:48:24;94566.25;;;18.37;100.00
67434;BME280;54305;47.950;6.572;2023-07-13T06:50:49;94571.28;;;18.06;100.00
67434;BME280;54305;47.950;6.572;2023-07-13T06:53:17;94575.88;;;17.84;100.00
67434;BME280;54305;47.950;6.572;2023-07-13T06:55:43;94574.25;;;17.90;100.00
67434;BME280;54305;47.950;6.572;2023-07-13T06:58:08;94568.16;;;17.83;100.00
67434;BME280;54305;47.950;6.572;2023-07-13T07:00:34;94577.13;;;17.95;100.00
67434;BME280;54305;47.950;6.572;2023-07-13T07:02:59;94576.34;;;18.20;100.00
67434;BME280;54305;47.950;6.572;2023-07-13T07:05:24;94578.84;;;18.35;100.00
67434;BME280;54305;47.950;6.572;2023-07-13T07:07:50;94574.75;;;18.52;100.00
67434;BME280;54305;47.950;6.572;2023-07-13T07:10:16;94581.22;;;18.23;100.00
67434;BME280;54305;47.950;6.572;2023-07-13T07:12:41;94580.41;;;18.10;100.00
67434;BME280;54305;47.950;6.572;2023-07-13T07:15:07;94585.72;;;18.42;100.00
67434;BME280;54305;47.950;6.572;2023-07-13T07:17:32;94587.53;;;18.29;100.00
67434;BME280;54305;47.950;6.572;2023-07-13T07:19:57;94592.16;;;18.20;100.00
67434;BME280;54305;47.950;6.572;2023-07-13T07:22:22;94589.78;;;18.45;100.00
67434;BME280;54305;47.950;6.572;2023-07-13T07:24:47;94583.31;;;18.54;100.00
67434;BME280;54305;47.950;6.572;2023-07-13T07:27:13;94592.63;;;18.63;100.00
67434;BME280;54305;47.950;6.572;2023-07-13T07:29:38;94586.09;;;19.11;100.00
67434;BME280;54305;47.950;6.572;2023-07-13T07:32:03;94586.03;;;19.17;100.00
67434;BME280;54305;47.950;6.572;2023-07-13T07:34:29;94596.41;;;19.19;100.00
67434;BME280;54305;47.950;6.572;2023-07-13T07:36:56;94594.59;;;19.19;100.00
67434;BME280;54305;47.950;6.572;2023-07-13T07:39:21;94596.22;;;19.20;100.00
67434;BME280;54305;47.950;6.572;2023-07-13T07:41:47;94597.84;;;19.28;100.00
67434;BME280;54305;47.950;6.572;2023-07-13T07:44:12;94593.75;;;19.19;96.41
67434;BME280;54305;47.950;6.572;2023-07-13T07:46:38;94597.44;;;19.05;90.03
67434;BME280;54305;47.950;6.572;2023-07-13T07:49:06;94594.59;;;19.13;99.25
67434;BME280;54305;47.950;6.572;2023-07-13T07:51:31;94600.91;;;18.92;96.46
67434;BME280;54305;47.950;6.572;2023-07-13T07:53:56;94598.31;;;18.73;87.81
67434;BME280;54305;47.950;6.572;2023-07-13T07:56:21;94601.34;;;18.63;95.81
67434;BME280;54305;47.950;6.572;2023-07-13T07:58:47;94606.03;;;18.55;98.04
67434;BME280;54305;47.950;6.572;2023-07-13T08:01:12;94606.78;;;19.01;97.22
67434;BME280;54305;47.950;6.572;2023-07-13T08:03:37;94605.94;;;19.33;96.33
67434;BME280;54305;47.950;6.572;2023-07-13T08:06:02;94612.84;;;19.34;96.25
67434;BME280;54305;47.950;6.572;2023-07-13T08:08:28;94609.06;;;19.74;97.43
67434;BME280;54305;47.950;6.572;2023-07-13T08:10:53;94604.88;;;19.97;95.34
67434;BME280;54305;47.950;6.572;2023-07-13T08:13:18;94607.53;;;20.35;93.31
67434;BME280;54305;47.950;6.572;2023-07-13T08:15:44;94608.53;;;20.65;87.45
67434;BME280;54305;47.950;6.572;2023-07-13T08:18:09;94612.69;;;20.55;81.01
67434;BME280;54305;47.950;6.572;2023-07-13T08:20:38;94606.16;;;19.82;79.79
67434;BME280;54305;47.950;6.572;2023-07-13T08:23:03;94603.34;;;20.21;82.18
67434;BME280;54305;47.950;6.572;2023-07-13T08:25:28;94606.25;;;20.06;75.07
67434;BME280;54305;47.950;6.572;2023-07-13T08:27:54;94611.72;;;20.18;75.50
67434;BME280;54305;47.950;6.572;2023-07-13T08:30:19;94609.31;;;20.10;80.43
67434;BME280;54305;47.950;6.572;2023-07-13T08:32:44;94608.47;;;20.16;78.90
67434;BME280;54305;47.950;6.572;2023-07-13T08:35:09;94605.19;;;20.21;71.63
67434;BME280;54305;47.950;6.572;2023-07-13T08:37:35;94608.09;;;20.68;76.09
67434;BME280;54305;47.950;6.572;2023-07-13T08:40:00;94603.09;;;20.29;70.92
67434;BME280;54305;47.950;6.572;2023-07-13T08:47:15;94601.75;;;20.51;62.69
67434;BME280;54305;47.950;6.572;2023-07-13T08:49:41;94601.22;;;20.92;67.38
67434;BME280;54305;47.950;6.572;2023-07-13T08:54:36;94609.47;;;20.46;63.93
67434;BME280;54305;47.950;6.572;2023-07-13T08:57:03;94609.44;;;20.52;61.29
67434;BME280;54305;47.950;6.572;2023-07-13T08:59:34;94606.56;;;21.10;64.44
67434;BME280;54305;47.950;6.572;2023-07-13T09:04:29;94619.44;;;20.75;66.46
67434;BME280;54305;47.950;6.572;2023-07-13T09:09:30;94609.91;;;21.41;67.02
67434;BME280;54305;47.950;6.572;2023-07-13T09:12:07;94605.78;;;21.45;64.49
67434;BME280;54305;47.950;6.572;2023-07-13T09:17:08;94604.16;;;21.26;60.16
67434;BME280;54305;47.950;6.572;2023-07-13T09:19:35;94597.97;;;21.14;51.06
67434;BME280;54305;47.950;6.572;2023-07-13T09:22:01;94601.88;;;21.30;51.93
67434;BME280;54305;47.950;6.572;2023-07-13T09:24:33;94600.34;;;21.58;51.27
67434;BME280;54305;47.950;6.572;2023-07-13T09:27:01;94596.00;;;22.41;54.78
67434;BME280;54305;47.950;6.572;2023-07-13T09:29:30;94607.34;;;22.18;49.54
67434;BME280;54305;47.950;6.572;2023-07-13T09:32:01;94600.69;;;22.27;51.90
67434;BME280;54305;47.950;6.572;2023-07-13T09:34:27;94596.56;;;22.31;46.47
67434;BME280;54305;47.950;6.572;2023-07-13T09:36:54;94592.22;;;21.89;54.27
67434;BME280;54305;47.950;6.572;2023-07-13T09:39:27;94591.44;;;22.18;56.28
67434;BME280;54305;47.950;6.572;2023-07-13T09:42:06;94597.28;;;22.09;54.75
67434;BME280;54305;47.950;6.572;2023-07-13T09:47:22;94612.63;;;21.53;48.03
67434;BME280;54305;47.950;6.572;2023-07-13T09:49:48;94610.41;;;22.04;48.63
67434;BME280;54305;47.950;6.572;2023-07-13T09:52:18;94620.97;;;21.38;46.12
67434;BME280;54305;47.950;6.572;2023-07-13T09:54:44;94619.94;;;21.75;52.57
67434;BME280;54305;47.950;6.572;2023-07-13T09:57:14;94623.06;;;21.72;49.64
67434;BME280;54305;47.950;6.572;2023-07-13T09:59:42;94623.13;;;22.13;46.45
67434;BME280;54305;47.950;6.572;2023-07-13T10:04:51;94624.28;;;22.35;53.48
67434;BME280;54305;47.950;6.572;2023-07-13T10:07:22;94612.22;;;22.21;54.15
67434;BME280;54305;47.950;6.572;2023-07-13T10:09:47;94627.13;;;22.04;55.56
67434;BME280;54305;47.950;6.572;2023-07-13T10:12:17;94633.31;;;21.62;54.45
67434;BME280;54305;47.950;6.572;2023-07-13T10:14:43;94637.75;;;21.68;56.28
67434;BME280;54305;47.950;6.572;2023-07-13T10:17:09;94639.91;;;21.96;53.47
67434;BME280;54305;47.950;6.572;2023-07-13T10:19:35;94633.59;;;22.08;56.34
67434;BME280;54305;47.950;6.572;2023-07-13T10:22:02;94632.16;;;21.58;50.93
67434;BME280;54305;47.950;6.572;2023-07-13T10:24:35;94631.75;;;21.55;54.26
67434;BME280;54305;47.950;6.572;2023-07-13T10:29:53;94635.94;;;21.02;59.79
67434;BME280;54305;47.950;6.572;2023-07-13T10:32:17;94641.00;;;22.06;65.32
67434;BME280;54305;47.950;6.572;2023-07-13T10:34:45;94636.84;;;22.10;62.71
67434;BME280;54305;47.950;6.572;2023-07-13T10:37:18;94648.97;;;22.65;66.84
67434;BME280;54305;47.950;6.572;2023-07-13T10:39:45;94644.50;;;23.30;57.17
67434;BME280;54305;47.950;6.572;2023-07-13T10:42:11;94650.06;;;22.87;59.11
67434;BME280;54305;47.950;6.572;2023-07-13T10:44:38;94650.97;;;22.22;66.26
67434;BME280;54305;47.950;6.572;2023-07-13T10:47:06;94652.72;;;22.87;62.02
67434;BME280;54305;47.950;6.572;2023-07-13T10:49:33;94655.44;;;21.92;55.44
67434;BME280;54305;47.950;6.572;2023-07-13T10:52:00;94652.47;;;21.64;59.73
67434;BME280;54305;47.950;6.572;2023-07-13T10:54:32;94653.00;;;22.56;60.27
67434;BME280;54305;47.950;6.572;2023-07-13T10:57:17;94644.72;;;23.63;57.39
67434;BME280;54305;47.950;6.572;2023-07-13T10:59:47;94647.31;;;23.05;52.79
67434;BME280;54305;47.950;6.572;2023-07-13T11:02:26;94652.91;;;23.38;52.09
67434;BME280;54305;47.950;6.572;2023-07-13T11:04:53;94650.47;;;23.71;48.40
67434;BME280;54305;47.950;6.572;2023-07-13T11:07:20;94651.91;;;24.13;50.24
67434;BME280;54305;47.950;6.572;2023-07-13T11:09:48;94648.50;;;23.55;49.19
67434;BME280;54305;47.950;6.572;2023-07-13T11:15:06;94652.19;;;21.90;52.84
67434;BME280;54305;47.950;6.572;2023-07-13T11:20:07;94654.34;;;21.82;60.36
67434;BME280;54305;47.950;6.572;2023-07-13T11:22:44;94653.16;;;22.73;54.48
67434;BME280;54305;47.950;6.572;2023-07-13T11:27:51;94638.91;;;23.66;57.05
67434;BME280;54305;47.950;6.572;2023-07-13T11:32:42;94639.03;;;23.48;48.35
67434;BME280;54305;47.950;6.572;2023-07-13T11:35:15;94646.00;;;23.37;50.54
67434;BME280;54305;47.950;6.572;2023-07-13T11:37:44;94642.72;;;23.12;50.58
67434;BME280;54305;47.950;6.572;2023-07-13T11:40:16;94638.78;;;23.03;49.80
67434;BME280;54305;47.950;6.572;2023-07-13T11:42:41;94632.38;;;22.40;48.16
67434;BME280;54305;47.950;6.572;2023-07-13T11:45:18;94636.59;;;23.12;48.65
67434;BME280;54305;47.950;6.572;2023-07-13T11:47:44;94643.59;;;22.83;47.18
67434;BME280;54305;47.950;6.572;2023-07-13T11:50:20;94644.50;;;23.41;49.39
67434;BME280;54305;47.950;6.572;2023-07-13T11:52:45;94640.69;;;23.37;47.10
67434;BME280;54305;47.950;6.572;2023-07-13T11:55:15;94637.31;;;23.19;48.47
67434;BME280;54305;47.950;6.572;2023-07-13T11:57:42;94637.50;;;23.06;48.22
67434;BME280;54305;47.950;6.572;2023-07-13T12:00:11;94639.19;;;22.77;45.41
67434;BME280;54305;47.950;6.572;2023-07-13T12:02:38;94638.25;;;23.47;48.88
67434;BME280;54305;47.950;6.572;2023-07-13T12:05:08;94643.94;;;22.87;45.79
67434;BME280;54305;47.950;6.572;2023-07-13T12:07:34;94634.84;;;22.94;45.89
67434;BME280;54305;47.950;6.572;2023-07-13T12:10:22;94638.81;;;23.26;47.20
67434;BME280;54305;47.950;6.572;2023-07-13T12:12:50;94642.06;;;23.51;47.43
67434;BME280;54305;47.950;6.572;2023-07-13T12:15:16;94638.00;;;22.73;47.40
67434;BME280;54305;47.950;6.572;2023-07-13T12:17:41;94640.19;;;22.65;49.36
67434;BME280;54305;47.950;6.572;2023-07-13T12:23:05;94633.47;;;23.26;46.08
67434;BME280;54305;47.950;6.572;2023-07-13T12:25:31;94632.63;;;22.91;49.55
67434;BME280;54305;47.950;6.572;2023-07-13T12:27:56;94628.81;;;22.87;45.23
67434;BME280;54305;47.950;6.572;2023-07-13T12:30:26;94629.66;;;23.11;44.81
67434;BME280;54305;47.950;6.572;2023-07-13T12:32:56;94632.19;;;23.63;45.60
67434;BME280;54305;47.950;6.572;2023-07-13T12:35:22;94627.19;;;23.78;44.35
67434;BME280;54305;47.950;6.572;2023-07-13T12:37:47;94621.69;;;23.45;46.14
67434;BME280;54305;47.950;6.572;2023-07-13T12:40:13;94623.28;;;23.00;49.77
67434;BME280;54305;47.950;6.572;2023-07-13T12:42:39;94635.66;;;22.54;47.17
67434;BME280;54305;47.950;6.572;2023-07-13T12:45:17;94636.94;;;22.33;52.81
67434;BME280;54305;47.950;6.572;2023-07-13T12:47:43;94643.81;;;21.75;49.09
67434;BME280;54305;47.950;6.572;2023-07-13T12:50:14;94636.28;;;21.54;49.60
67434;BME280;54305;47.950;6.572;2023-07-13T12:52:40;94630.69;;;22.98;51.02
67434;BME280;54305;47.950;6.572;2023-07-13T12:55:13;94630.91;;;24.56;53.32
67434;BME280;54305;47.950;6.572;2023-07-13T12:57:45;94638.22;;;24.61;43.29
67434;BME280;54305;47.950;6.572;2023-07-13T13:00:28;94638.34;;;23.52;47.29
67434;BME280;54305;47.950;6.572;2023-07-13T13:02:56;94638.56;;;22.34;46.34
67434;BME280;54305;47.950;6.572;2023-07-13T13:05:25;94641.06;;;22.29;48.60
67434;BME280;54305;47.950;6.572;2023-07-13T13:07:50;94640.75;;;22.55;50.05
67434;BME280;54305;47.950;6.572;2023-07-13T13:10:16;94642.03;;;21.87;48.50
67434;BME280;54305;47.950;6.572;2023-07-13T13:12:42;94639.47;;;21.99;50.30
67434;BME280;54305;47.950;6.572;2023-07-13T13:15:08;94635.28;;;22.21;50.36
67434;BME280;54305;47.950;6.572;2023-07-13T13:17:33;94629.91;;;22.09;48.52
67434;BME280;54305;47.950;6.572;2023-07-13T13:19:59;94624.00;;;22.25;49.24
67434;BME280;54305;47.950;6.572;2023-07-13T13:22:24;94631.69;;;21.61;49.87
67434;BME280;54305;47.950;6.572;2023-07-13T13:24:49;94634.94;;;21.63;51.97
67434;BME280;54305;47.950;6.572;2023-07-13T13:27:15;94635.56;;;21.83;52.76
67434;BME280;54305;47.950;6.572;2023-07-13T13:29:42;94629.88;;;22.45;49.92
67434;BME280;54305;47.950;6.572;2023-07-13T13:32:09;94634.19;;;22.58;53.00